sensor_id;sensor_type;location;lat;lon;timestamp;P1;durP1;ratioP1;P2;durP2;ratioP2
40322;SDS011;26030;51.164;17.100;2022-08-19T00:04:13;10.90;;;9.20;;
40322;SDS011;26030;51.164;17.100;2022-08-19T00:09:18;10.40;;;8.10;;
40322;SDS011;26030;51.164;17.100;2022-08-19T00:14:21;9.60;;;8.70;;
40322;SDS011;26030;51.164;17.100;2022-08-19T00:19:25;11.50;;;9.00;;
40322;SDS011;26030;51.164;17.100;2022-08-19T00:24:28;12.20;;;9.30;;
40322;SDS011;26030;51.164;17.100;2022-08-19T00:29:31;10.00;;;9.00;;
40322;SDS011;26030;51.164;17.100;2022-08-19T00:34:33;9.80;;;8.80;;
40322;SDS011;26030;51.164;17.100;2022-08-19T00:39:38;13.00;;;8.50;;
40322;SDS011;26030;51.164;17.100;2022-08-19T00:44:40;9.90;;;8.90;;
40322;SDS011;26030;51.164;17.100;2022-08-19T00:49:47;10.30;;;9.30;;
40322;SDS011;26030;51.164;17.100;2022-08-19T00:54:53;9.80;;;8.40;;
40322;SDS011;26030;51.164;17.100;2022-08-19T00:59:56;9.30;;;8.10;;
40322;SDS011;26030;51.164;17.100;2022-08-19T01:05:07;11.60;;;8.40;;
40322;SDS011;26030;51.164;17.100;2022-08-19T01:10:12;9.50;;;8.60;;
40322;SDS011;26030;51.164;17.100;2022-08-19T01:15:20;12.00;;;8.80;;
40322;SDS011;26030;51.164;17.100;2022-08-19T01:20:24;8.80;;;7.90;;
40322;SDS011;26030;51.164;17.100;2022-08-19T01:25:32;9.30;;;8.30;;
40322;SDS011;26030;51.164;17.100;2022-08-19T01:30:40;12.00;;;8.30;;
40322;SDS011;26030;51.164;17.100;2022-08-19T01:35:46;10.20;;;8.50;;
40322;SDS011;26030;51.164;17.100;2022-08-19T01:40:53;9.50;;;8.40;;
40322;SDS011;26030;51.164;17.100;2022-08-19T01:45:55;9.30;;;8.40;;
40322;SDS011;26030;51.164;17.100;2022-08-19T01:50:57;8.80;;;7.90;;
40322;SDS011;26030;51.164;17.100;2022-08-19T01:56:00;9.40;;;8.30;;
40322;SDS011;26030;51.164;17.100;2022-08-19T02:01:04;9.70;;;8.30;;
40322;SDS011;26030;51.164;17.100;2022-08-19T02:06:06;9.00;;;7.80;;
40322;SDS011;26030;51.164;17.100;2022-08-19T02:11:09;10.30;;;7.80;;
40322;SDS011;26030;51.164;17.100;2022-08-19T02:16:20;9.80;;;8.10;;
40322;SDS011;26030;51.164;17.100;2022-08-19T02:21:23;9.60;;;8.10;;
40322;SDS011;26030;51.164;17.100;2022-08-19T02:26:26;8.50;;;7.60;;
40322;SDS011;26030;51.164;17.100;2022-08-19T02:31:29;8.80;;;7.90;;
40322;SDS011;26030;51.164;17.100;2022-08-19T02:36:31;9.00;;;7.90;;
40322;SDS011;26030;51.164;17.100;2022-08-19T02:41:34;9.30;;;8.40;;
40322;SDS011;26030;51.164;17.100;2022-08-19T02:46:36;8.40;;;7.50;;
40322;SDS011;26030;51.164;17.100;2022-08-19T02:51:43;8.80;;;8.00;;
40322;SDS011;26030;51.164;17.100;2022-08-19T02:56:45;8.50;;;7.70;;
40322;SDS011;26030;51.164;17.100;2022-08-19T03:01:48;8.80;;;7.60;;
40322;SDS011;26030;51.164;17.100;2022-08-19T03:06:51;8.90;;;8.00;;
40322;SDS011;26030;51.164;17.100;2022-08-19T03:11:53;9.00;;;8.00;;
40322;SDS011;26030;51.164;17.100;2022-08-19T03:16:55;10.70;;;8.50;;
40322;SDS011;26030;51.164;17.100;2022-08-19T03:21:58;7.60;;;6.70;;
40322;SDS011;26030;51.164;17.100;2022-08-19T03:27:00;11.40;;;8.30;;
40322;SDS011;26030;51.164;17.100;2022-08-19T03:32:04;8.80;;;7.90;;
40322;SDS011;26030;51.164;17.100;2022-08-19T03:37:10;8.80;;;7.60;;
40322;SDS011;26030;51.164;17.100;2022-08-19T03:42:14;9.80;;;8.10;;
40322;SDS011;26030;51.164;17.100;2022-08-19T03:47:37;9.90;;;7.50;;
40322;SDS011;26030;51.164;17.100;2022-08-19T03:52:39;9.30;;;8.00;;
40322;SDS011;26030;51.164;17.100;2022-08-19T03:57:48;9.00;;;8.10;;
40322;SDS011;26030;51.164;17.100;2022-08-19T04:02:50;8.30;;;7.50;;
40322;SDS011;26030;51.164;17.100;2022-08-19T04:08:03;8.80;;;7.80;;
40322;SDS011;26030;51.164;17.100;2022-08-19T04:13:12;11.40;;;8.00;;
40322;SDS011;26030;51.164;17.100;2022-08-19T04:18:14;8.80;;;7.90;;
40322;SDS011;26030;51.164;17.100;2022-08-19T04:23:17;9.30;;;8.30;;
40322;SDS011;26030;51.164;17.100;2022-08-19T04:28:21;10.10;;;7.70;;
40322;SDS011;26030;51.164;17.100;2022-08-19T04:33:24;10.90;;;8.40;;
40322;SDS011;26030;51.164;17.100;2022-08-19T04:38:31;9.80;;;8.50;;
40322;SDS011;26030;51.164;17.100;2022-08-19T04:43:39;9.20;;;8.10;;
40322;SDS011;26030;51.164;17.100;2022-08-19T04:48:42;8.70;;;7.80;;
40322;SDS011;26030;51.164;17.100;2022-08-19T04:53:53;10.60;;;8.10;;
40322;SDS011;26030;51.164;17.100;2022-08-19T04:58:59;8.90;;;8.00;;
40322;SDS011;26030;51.164;17.100;2022-08-19T05:04:06;8.10;;;7.30;;
40322;SDS011;26030;51.164;17.100;2022-08-19T05:09:10;9.60;;;8.60;;
40322;SDS011;26030;51.164;17.100;2022-08-19T05:14:27;8.60;;;7.70;;
40322;SDS011;26030;51.164;17.100;2022-08-19T05:19:35;9.30;;;8.40;;
40322;SDS011;26030;51.164;17.100;2022-08-19T05:25:11;12.00;;;8.70;;
40322;SDS011;26030;51.164;17.100;2022-08-19T05:30:17;9.50;;;8.50;;
40322;SDS011;26030;51.164;17.100;2022-08-19T05:35:21;11.50;;;9.30;;
40322;SDS011;26030;51.164;17.100;2022-08-19T05:40:26;12.30;;;9.10;;
40322;SDS011;26030;51.164;17.100;2022-08-19T05:45:30;10.20;;;8.70;;
40322;SDS011;26030;51.164;17.100;2022-08-19T05:50:32;11.00;;;9.10;;
40322;SDS011;26030;51.164;17.100;2022-08-19T05:55:35;10.50;;;8.40;;
40322;SDS011;26030;51.164;17.100;2022-08-19T06:00:43;11.60;;;9.10;;
40322;SDS011;26030;51.164;17.100;2022-08-19T06:05:46;10.50;;;9.30;;
40322;SDS011;26030;51.164;17.100;2022-08-19T06:10:53;10.30;;;8.80;;
40322;SDS011;26030;51.164;17.100;2022-08-19T06:15:55;10.20;;;8.50;;
40322;SDS011;26030;51.164;17.100;2022-08-19T06:20:58;10.40;;;9.30;;
40322;SDS011;26030;51.164;17.100;2022-08-19T06:26:00;10.70;;;9.30;;
40322;SDS011;26030;51.164;17.100;2022-08-19T06:31:06;11.30;;;9.50;;
40322;SDS011;26030;51.164;17.100;2022-08-19T06:36:17;10.40;;;8.90;;
40322;SDS011;26030;51.164;17.100;2022-08-19T06:41:20;9.80;;;8.50;;
40322;SDS011;26030;51.164;17.100;2022-08-19T06:46:23;11.20;;;9.70;;
40322;SDS011;26030;51.164;17.100;2022-08-19T06:51:26;10.50;;;9.30;;
40322;SDS011;26030;51.164;17.100;2022-08-19T06:56:33;10.70;;;9.60;;
40322;SDS011;26030;51.164;17.100;2022-08-19T07:01:43;10.20;;;9.00;;
40322;SDS011;26030;51.164;17.100;2022-08-19T07:06:48;10.90;;;9.40;;
40322;SDS011;26030;51.164;17.100;2022-08-19T07:11:56;10.60;;;9.30;;
40322;SDS011;26030;51.164;17.100;2022-08-19T07:16:59;11.20;;;9.40;;
40322;SDS011;26030;51.164;17.100;2022-08-19T07:22:03;10.60;;;9.40;;
40322;SDS011;26030;51.164;17.100;2022-08-19T07:27:06;12.50;;;9.90;;
40322;SDS011;26030;51.164;17.100;2022-08-19T07:32:18;10.60;;;9.50;;
40322;SDS011;26030;51.164;17.100;2022-08-19T07:37:20;11.50;;;10.10;;
40322;SDS011;26030;51.164;17.100;2022-08-19T07:42:26;10.90;;;9.70;;
40322;SDS011;26030;51.164;17.100;2022-08-19T07:47:33;11.50;;;9.20;;
40322;SDS011;26030;51.164;17.100;2022-08-19T07:52:52;10.80;;;9.60;;
40322;SDS011;26030;51.164;17.100;2022-08-19T07:57:54;10.60;;;9.50;;
40322;SDS011;26030;51.164;17.100;2022-08-19T08:02:57;10.30;;;9.20;;
40322;SDS011;26030;51.164;17.100;2022-08-19T08:07:59;13.10;;;9.70;;
40322;SDS011;26030;51.164;17.100;2022-08-19T08:13:20;16.40;;;9.10;;
40322;SDS011;26030;51.164;17.100;2022-08-19T08:18:24;10.40;;;9.30;;
40322;SDS011;26030;51.164;17.100;2022-08-19T08:23:31;11.20;;;9.30;;
40322;SDS011;26030;51.164;17.100;2022-08-19T08:28:34;10.30;;;9.30;;
40322;SDS011;26030;51.164;17.100;2022-08-19T08:33:36;10.10;;;9.00;;
40322;SDS011;26030;51.164;17.100;2022-08-19T08:38:39;9.70;;;8.40;;
40322;SDS011;26030;51.164;17.100;2022-08-19T08:43:46;10.70;;;9.30;;
40322;SDS011;26030;51.164;17.100;2022-08-19T08:54:04;10.40;;;8.60;;
40322;SDS011;26030;51.164;17.100;2022-08-19T08:59:23;10.00;;;8.90;;
40322;SDS011;26030;51.164;17.100;2022-08-19T09:04:31;10.30;;;9.20;;
40322;SDS011;26030;51.164;17.100;2022-08-19T09:09:46;10.00;;;8.80;;
40322;SDS011;26030;51.164;17.100;2022-08-19T09:20:06;10.20;;;8.50;;
40322;SDS011;26030;51.164;17.100;2022-08-19T09:25:14;9.80;;;8.70;;
40322;SDS011;26030;51.164;17.100;2022-08-19T09:30:21;10.30;;;9.30;;
40322;SDS011;26030;51.164;17.100;2022-08-19T09:35:33;9.90;;;8.90;;
40322;SDS011;26030;51.164;17.100;2022-08-19T09:40:54;10.50;;;9.30;;
40322;SDS011;26030;51.164;17.100;2022-08-19T09:45:59;12.30;;;9.30;;
40322;SDS011;26030;51.164;17.100;2022-08-19T09:51:12;10.90;;;9.80;;
40322;SDS011;26030;51.164;17.100;2022-08-19T09:56:21;9.80;;;8.90;;
40322;SDS011;26030;51.164;17.100;2022-08-19T10:01:27;10.10;;;9.10;;
40322;SDS011;26030;51.164;17.100;2022-08-19T10:06:30;10.30;;;9.20;;
40322;SDS011;26030;51.164;17.100;2022-08-19T10:11:48;9.40;;;8.50;;
40322;SDS011;26030;51.164;17.100;2022-08-19T10:16:57;9.30;;;8.50;;
40322;SDS011;26030;51.164;17.100;2022-08-19T10:22:03;9.10;;;8.20;;
40322;SDS011;26030;51.164;17.100;2022-08-19T10:27:11;10.20;;;8.50;;
40322;SDS011;26030;51.164;17.100;2022-08-19T10:32:17;9.90;;;8.90;;
40322;SDS011;26030;51.164;17.100;2022-08-19T10:37:34;9.10;;;8.20;;
40322;SDS011;26030;51.164;17.100;2022-08-19T10:42:48;9.30;;;8.20;;
40322;SDS011;26030;51.164;17.100;2022-08-19T10:47:55;9.30;;;8.30;;
40322;SDS011;26030;51.164;17.100;2022-08-19T10:53:05;12.20;;;8.40;;
40322;SDS011;26030;51.164;17.100;2022-08-19T10:58:13;10.80;;;9.00;;
40322;SDS011;26030;51.164;17.100;2022-08-19T11:03:16;9.80;;;8.80;;
40322;SDS011;26030;51.164;17.100;2022-08-19T11:08:18;9.50;;;8.50;;
40322;SDS011;26030;51.164;17.100;2022-08-19T11:13:26;9.30;;;8.10;;
40322;SDS011;26030;51.164;17.100;2022-08-19T11:18:28;9.40;;;8.50;;
40322;SDS011;26030;51.164;17.100;2022-08-19T11:23:31;11.00;;;9.10;;
40322;SDS011;26030;51.164;17.100;2022-08-19T11:28:34;9.40;;;8.50;;
40322;SDS011;26030;51.164;17.100;2022-08-19T11:33:36;10.10;;;8.40;;
40322;SDS011;26030;51.164;17.100;2022-08-19T11:38:38;9.30;;;8.30;;
40322;SDS011;26030;51.164;17.100;2022-08-19T11:43:41;10.10;;;8.50;;
40322;SDS011;26030;51.164;17.100;2022-08-19T11:48:44;8.80;;;8.00;;
40322;SDS011;26030;51.164;17.100;2022-08-19T11:53:50;8.40;;;7.40;;
40322;SDS011;26030;51.164;17.100;2022-08-19T11:58:54;9.80;;;7.80;;
40322;SDS011;26030;51.164;17.100;2022-08-19T12:03:58;9.20;;;8.30;;
40322;SDS011;26030;51.164;17.100;2022-08-19T12:09:05;9.10;;;8.30;;
40322;SDS011;26030;51.164;17.100;2022-08-19T12:14:11;8.80;;;7.90;;
40322;SDS011;26030;51.164;17.100;2022-08-19T12:19:16;8.60;;;7.80;;
40322;SDS011;26030;51.164;17.100;2022-08-19T12:24:24;8.70;;;7.80;;
40322;SDS011;26030;51.164;17.100;2022-08-19T12:29:27;9.00;;;8.10;;
40322;SDS011;26030;51.164;17.100;2022-08-19T12:34:31;10.20;;;8.80;;
40322;SDS011;26030;51.164;17.100;2022-08-19T12:39:36;8.50;;;7.60;;
40322;SDS011;26030;51.164;17.100;2022-08-19T12:44:40;8.50;;;7.60;;
40322;SDS011;26030;51.164;17.100;2022-08-19T12:49:44;7.70;;;6.90;;
40322;SDS011;26030;51.164;17.100;2022-08-19T12:54:57;7.90;;;7.10;;
40322;SDS011;26030;51.164;17.100;2022-08-19T13:00:12;8.10;;;7.30;;
40322;SDS011;26030;51.164;17.100;2022-08-19T13:05:23;7.60;;;6.80;;
40322;SDS011;26030;51.164;17.100;2022-08-19T13:10:29;7.50;;;6.70;;
40322;SDS011;26030;51.164;17.100;2022-08-19T13:15:35;7.30;;;6.60;;
40322;SDS011;26030;51.164;17.100;2022-08-19T13:20:38;7.40;;;6.70;;
40322;SDS011;26030;51.164;17.100;2022-08-19T13:25:42;7.10;;;6.50;;
40322;SDS011;26030;51.164;17.100;2022-08-19T13:30:49;8.10;;;6.60;;
40322;SDS011;26030;51.164;17.100;2022-08-19T13:36:10;8.30;;;6.80;;
40322;SDS011;26030;51.164;17.100;2022-08-19T13:41:13;7.70;;;6.90;;
40322;SDS011;26030;51.164;17.100;2022-08-19T13:46:16;8.50;;;6.40;;
40322;SDS011;26030;51.164;17.100;2022-08-19T13:51:18;9.00;;;7.00;;
40322;SDS011;26030;51.164;17.100;2022-08-19T13:56:21;7.30;;;6.20;;
40322;SDS011;26030;51.164;17.100;2022-08-19T14:01:28;7.50;;;6.40;;
40322;SDS011;26030;51.164;17.100;2022-08-19T14:06:32;8.30;;;6.70;;
40322;SDS011;26030;51.164;17.100;2022-08-19T14:11:34;7.00;;;6.30;;
40322;SDS011;26030;51.164;17.100;2022-08-19T14:16:37;6.80;;;6.10;;
40322;SDS011;26030;51.164;17.100;2022-08-19T14:21:40;7.40;;;6.50;;
40322;SDS011;26030;51.164;17.100;2022-08-19T14:26:43;7.40;;;6.00;;
40322;SDS011;26030;51.164;17.100;2022-08-19T14:31:45;7.00;;;6.30;;
40322;SDS011;26030;51.164;17.100;2022-08-19T14:36:48;8.10;;;6.50;;
40322;SDS011;26030;51.164;17.100;2022-08-19T14:41:51;8.30;;;6.60;;
40322;SDS011;26030;51.164;17.100;2022-08-19T14:47:00;7.10;;;5.80;;
40322;SDS011;26030;51.164;17.100;2022-08-19T14:52:03;7.00;;;6.30;;
40322;SDS011;26030;51.164;17.100;2022-08-19T14:57:06;7.50;;;6.30;;
40322;SDS011;26030;51.164;17.100;2022-08-19T15:02:08;8.30;;;5.60;;
40322;SDS011;26030;51.164;17.100;2022-08-19T15:07:31;8.30;;;5.80;;
40322;SDS011;26030;51.164;17.100;2022-08-19T15:12:37;6.80;;;5.70;;
40322;SDS011;26030;51.164;17.100;2022-08-19T15:17:42;6.90;;;5.50;;
40322;SDS011;26030;51.164;17.100;2022-08-19T15:22:48;6.80;;;5.80;;
40322;SDS011;26030;51.164;17.100;2022-08-19T15:27:50;6.60;;;6.00;;
40322;SDS011;26030;51.164;17.100;2022-08-19T15:32:57;11.10;;;6.70;;
40322;SDS011;26030;51.164;17.100;2022-08-19T15:37:59;10.40;;;6.70;;
40322;SDS011;26030;51.164;17.100;2022-08-19T15:43:07;8.70;;;6.50;;
40322;SDS011;26030;51.164;17.100;2022-08-19T15:48:09;10.50;;;6.70;;
40322;SDS011;26030;51.164;17.100;2022-08-19T15:53:12;9.30;;;6.70;;
40322;SDS011;26030;51.164;17.100;2022-08-19T15:58:14;9.60;;;7.20;;
40322;SDS011;26030;51.164;17.100;2022-08-19T16:03:35;13.80;;;8.20;;
40322;SDS011;26030;51.164;17.100;2022-08-19T16:09:02;9.10;;;7.20;;
40322;SDS011;26030;51.164;17.100;2022-08-19T16:14:04;12.80;;;8.40;;
40322;SDS011;26030;51.164;17.100;2022-08-19T16:19:09;14.90;;;8.90;;
40322;SDS011;26030;51.164;17.100;2022-08-19T16:24:15;12.70;;;9.00;;
40322;SDS011;26030;51.164;17.100;2022-08-19T16:29:19;13.10;;;9.50;;
40322;SDS011;26030;51.164;17.100;2022-08-19T16:34:41;12.70;;;10.20;;
40322;SDS011;26030;51.164;17.100;2022-08-19T16:39:43;17.50;;;10.70;;
40322;SDS011;26030;51.164;17.100;2022-08-19T16:44:46;17.30;;;11.10;;
40322;SDS011;26030;51.164;17.100;2022-08-19T16:49:48;13.90;;;10.40;;
40322;SDS011;26030;51.164;17.100;2022-08-19T16:54:56;13.60;;;11.50;;
40322;SDS011;26030;51.164;17.100;2022-08-19T16:59:59;12.90;;;11.20;;
40322;SDS011;26030;51.164;17.100;2022-08-19T17:05:08;13.60;;;11.10;;
40322;SDS011;26030;51.164;17.100;2022-08-19T17:10:11;13.60;;;11.80;;
40322;SDS011;26030;51.164;17.100;2022-08-19T17:15:13;13.90;;;12.50;;
40322;SDS011;26030;51.164;17.100;2022-08-19T17:20:15;13.00;;;11.70;;
40322;SDS011;26030;51.164;17.100;2022-08-19T17:25:17;14.10;;;12.70;;
40322;SDS011;26030;51.164;17.100;2022-08-19T17:30:20;14.30;;;12.80;;
40322;SDS011;26030;51.164;17.100;2022-08-19T17:35:23;14.40;;;13.00;;
40322;SDS011;26030;51.164;17.100;2022-08-19T17:40:25;15.40;;;14.00;;
40322;SDS011;26030;51.164;17.100;2022-08-19T17:45:31;15.60;;;13.40;;
40322;SDS011;26030;51.164;17.100;2022-08-19T17:50:34;15.30;;;13.60;;
40322;SDS011;26030;51.164;17.100;2022-08-19T17:55:37;18.40;;;14.00;;
40322;SDS011;26030;51.164;17.100;2022-08-19T18:00:40;17.10;;;15.10;;
40322;SDS011;26030;51.164;17.100;2022-08-19T18:05:57;19.20;;;14.60;;
40322;SDS011;26030;51.164;17.100;2022-08-19T18:10:59;15.20;;;13.70;;
40322;SDS011;26030;51.164;17.100;2022-08-19T18:16:03;18.60;;;13.40;;
40322;SDS011;26030;51.164;17.100;2022-08-19T18:21:11;14.20;;;12.80;;
40322;SDS011;26030;51.164;17.100;2022-08-19T18:26:16;16.00;;;14.30;;
40322;SDS011;26030;51.164;17.100;2022-08-19T18:31:20;15.10;;;13.50;;
40322;SDS011;26030;51.164;17.100;2022-08-19T18:36:24;15.20;;;13.60;;
40322;SDS011;26030;51.164;17.100;2022-08-19T18:41:46;17.60;;;13.90;;
40322;SDS011;26030;51.164;17.100;2022-08-19T18:47:07;15.60;;;14.00;;
40322;SDS011;26030;51.164;17.100;2022-08-19T18:52:28;15.30;;;13.70;;
40322;SDS011;26030;51.164;17.100;2022-08-19T18:57:31;16.00;;;14.50;;
40322;SDS011;26030;51.164;17.100;2022-08-19T19:02:36;15.80;;;14.10;;
40322;SDS011;26030;51.164;17.100;2022-08-19T19:07:41;13.80;;;12.40;;
40322;SDS011;26030;51.164;17.100;2022-08-19T19:12:44;15.00;;;13.50;;
40322;SDS011;26030;51.164;17.100;2022-08-19T19:17:46;15.50;;;13.40;;
40322;SDS011;26030;51.164;17.100;2022-08-19T19:22:48;15.50;;;13.90;;
40322;SDS011;26030;51.164;17.100;2022-08-19T19:27:51;15.40;;;14.00;;
40322;SDS011;26030;51.164;17.100;2022-08-19T19:32:56;15.70;;;14.10;;
40322;SDS011;26030;51.164;17.100;2022-08-19T19:38:02;15.90;;;14.50;;
40322;SDS011;26030;51.164;17.100;2022-08-19T19:43:04;15.60;;;14.10;;
40322;SDS011;26030;51.164;17.100;2022-08-19T19:48:09;15.40;;;13.80;;
40322;SDS011;26030;51.164;17.100;2022-08-19T19:53:15;16.40;;;14.70;;
40322;SDS011;26030;51.164;17.100;2022-08-19T19:58:21;16.80;;;14.60;;
40322;SDS011;26030;51.164;17.100;2022-08-19T20:03:30;15.90;;;14.20;;
40322;SDS011;26030;51.164;17.100;2022-08-19T20:08:38;15.60;;;14.10;;
40322;SDS011;26030;51.164;17.100;2022-08-19T20:14:13;16.20;;;14.70;;
40322;SDS011;26030;51.164;17.100;2022-08-19T20:19:18;15.80;;;14.20;;
40322;SDS011;26030;51.164;17.100;2022-08-19T20:24:25;13.90;;;12.50;;
40322;SDS011;26030;51.164;17.100;2022-08-19T20:29:28;17.10;;;13.30;;
40322;SDS011;26030;51.164;17.100;2022-08-19T20:34:44;15.60;;;13.40;;
40322;SDS011;26030;51.164;17.100;2022-08-19T20:39:51;13.70;;;12.10;;
40322;SDS011;26030;51.164;17.100;2022-08-19T20:44:54;14.20;;;11.80;;
40322;SDS011;26030;51.164;17.100;2022-08-19T20:49:58;16.10;;;12.10;;
40322;SDS011;26030;51.164;17.100;2022-08-19T20:55:01;14.60;;;11.80;;
40322;SDS011;26030;51.164;17.100;2022-08-19T21:00:06;13.60;;;11.80;;
40322;SDS011;26030;51.164;17.100;2022-08-19T21:05:16;12.30;;;11.10;;
40322;SDS011;26030;51.164;17.100;2022-08-19T21:10:18;15.50;;;11.00;;
40322;SDS011;26030;51.164;17.100;2022-08-19T21:15:23;11.80;;;10.10;;
40322;SDS011;26030;51.164;17.100;2022-08-19T21:20:26;12.70;;;10.60;;
40322;SDS011;26030;51.164;17.100;2022-08-19T21:25:28;11.30;;;9.90;;
40322;SDS011;26030;51.164;17.100;2022-08-19T21:30:35;11.30;;;10.00;;
40322;SDS011;26030;51.164;17.100;2022-08-19T21:35:38;11.40;;;9.60;;
40322;SDS011;26030;51.164;17.100;2022-08-19T21:40:42;12.00;;;10.00;;
40322;SDS011;26030;51.164;17.100;2022-08-19T21:45:45;10.50;;;9.20;;
40322;SDS011;26030;51.164;17.100;2022-08-19T21:50:48;11.90;;;9.80;;
40322;SDS011;26030;51.164;17.100;2022-08-19T21:55:51;11.40;;;9.20;;
40322;SDS011;26030;51.164;17.100;2022-08-19T22:00:57;9.90;;;8.90;;
40322;SDS011;26030;51.164;17.100;2022-08-19T22:06:01;11.30;;;9.50;;
40322;SDS011;26030;51.164;17.100;2022-08-19T22:11:04;11.10;;;8.90;;
40322;SDS011;26030;51.164;17.100;2022-08-19T22:16:08;12.30;;;8.90;;
40322;SDS011;26030;51.164;17.100;2022-08-19T22:21:10;10.70;;;8.40;;
40322;SDS011;26030;51.164;17.100;2022-08-19T22:26:15;12.00;;;8.50;;
40322;SDS011;26030;51.164;17.100;2022-08-19T22:31:19;11.60;;;8.80;;
40322;SDS011;26030;51.164;17.100;2022-08-19T22:36:21;14.30;;;9.00;;
40322;SDS011;26030;51.164;17.100;2022-08-19T22:41:23;12.50;;;8.70;;
40322;SDS011;26030;51.164;17.100;2022-08-19T22:46:26;10.80;;;7.90;;
40322;SDS011;26030;51.164;17.100;2022-08-19T22:51:28;9.00;;;7.60;;
40322;SDS011;26030;51.164;17.100;2022-08-19T22:56:49;9.40;;;7.10;;
40322;SDS011;26030;51.164;17.100;2022-08-19T23:01:52;11.50;;;7.40;;
40322;SDS011;26030;51.164;17.100;2022-08-19T23:06:55;10.50;;;8.00;;
40322;SDS011;26030;51.164;17.100;2022-08-19T23:11:57;10.50;;;8.00;;
40322;SDS011;26030;51.164;17.100;2022-08-19T23:17:09;11.20;;;8.00;;
40322;SDS011;26030;51.164;17.100;2022-08-19T23:22:22;10.30;;;8.10;;
40322;SDS011;26030;51.164;17.100;2022-08-19T23:27:26;9.70;;;7.80;;
40322;SDS011;26030;51.164;17.100;2022-08-19T23:32:47;10.00;;;7.80;;
40322;SDS011;26030;51.164;17.100;2022-08-19T23:37:50;12.60;;;7.70;;
40322;SDS011;26030;51.164;17.100;2022-08-19T23:42:53;10.90;;;8.10;;
40322;SDS011;26030;51.164;17.100;2022-08-19T23:47:55;12.40;;;7.80;;
40322;SDS011;26030;51.164;17.100;2022-08-19T23:52:59;9.60;;;6.80;;
40322;SDS011;26030;51.164;17.100;2022-08-19T23:58:03;9.50;;;7.40;;
